createdAt,value
2022-10-22T00:01:13.437Z,8.26
2022-10-22T00:03:41.884Z,8.25
2022-10-22T00:06:11.885Z,8.25
2022-10-22T00:08:40.332Z,8.23
2022-10-22T00:11:17.613Z,8.17
2022-10-22T00:16:20.175Z,8.01
2022-10-22T00:18:48.546Z,7.97
2022-10-22T00:21:16.846Z,7.92
2022-10-22T00:23:45.275Z,7.86
2022-10-22T00:26:13.721Z,7.83
2022-10-22T00:28:41.950Z,7.81
2022-10-22T00:31:10.179Z,7.80
2022-10-22T00:33:38.529Z,7.77
2022-10-22T00:36:07.271Z,7.75
2022-10-22T00:38:35.465Z,7.74
2022-10-22T00:41:03.732Z,7.72
2022-10-22T00:43:31.947Z,7.72
2022-10-22T00:46:00.178Z,7.71
2022-10-22T00:48:31.622Z,7.71
2022-10-22T00:51:06.347Z,7.72
2022-10-22T00:53:41.699Z,7.69
2022-10-22T00:56:10.614Z,7.67
2022-10-22T00:58:49.434Z,7.65
2022-10-22T01:01:25.865Z,7.60
2022-10-22T01:03:55.010Z,7.56
2022-10-22T01:06:34.251Z,7.54
2022-10-22T01:09:41.811Z,7.53
2022-10-22T01:12:23.425Z,7.50
2022-10-22T01:14:51.681Z,7.46
2022-10-22T01:17:28.339Z,7.43
2022-10-22T01:19:59.485Z,7.39
2022-10-22T01:22:44.248Z,7.37
2022-10-22T01:25:37.283Z,7.36
2022-10-22T01:28:24.098Z,7.34
2022-10-22T01:30:56.519Z,7.34
2022-10-22T01:33:26.863Z,7.36
2022-10-22T01:35:55.415Z,7.35
2022-10-22T01:38:25.260Z,7.35
2022-10-22T01:40:54.633Z,7.32
2022-10-22T01:43:23.221Z,7.31
2022-10-22T01:46:04.011Z,7.30
2022-10-22T01:48:41.171Z,7.31
2022-10-22T01:51:27.867Z,7.33
2022-10-22T01:54:14.181Z,7.33
2022-10-22T01:56:50.585Z,7.30
2022-10-22T01:59:35.355Z,7.29
2022-10-22T02:02:20.891Z,7.24
2022-10-22T02:04:55.825Z,7.18
2022-10-22T02:07:30.697Z,7.12
2022-10-22T02:10:00.554Z,7.07
2022-10-22T02:12:31.765Z,7.04
2022-10-22T02:15:02.813Z,7.01
2022-10-22T02:17:35.279Z,6.95
2022-10-22T02:20:13.026Z,6.92
2022-10-22T02:22:42.102Z,6.89
2022-10-22T02:25:11.727Z,6.80
2022-10-22T02:27:43.499Z,6.74
2022-10-22T02:33:28.767Z,6.63
2022-10-22T02:35:58.674Z,6.53
2022-10-22T02:38:28.371Z,6.46
2022-10-22T02:40:56.639Z,6.38
2022-10-22T02:43:25.639Z,6.31
2022-10-22T02:45:53.841Z,6.26
2022-10-22T02:48:22.091Z,6.22
2022-10-22T02:50:50.347Z,6.18
2022-10-22T02:53:18.501Z,6.12
2022-10-22T02:55:46.782Z,6.08
2022-10-22T02:58:15.039Z,6.05
2022-10-22T03:00:43.317Z,6.01
2022-10-22T03:03:11.611Z,5.98
2022-10-22T03:05:39.834Z,5.95
2022-10-22T03:08:08.122Z,5.92
2022-10-22T03:10:36.621Z,5.92
2022-10-22T03:13:04.790Z,5.89
2022-10-22T03:15:32.996Z,5.85
2022-10-22T03:18:01.336Z,5.82
2022-10-22T03:20:29.519Z,5.78
2022-10-22T03:22:57.959Z,5.74
2022-10-22T03:25:28.307Z,5.72
2022-10-22T03:28:03.173Z,5.71
2022-10-22T03:30:31.780Z,5.67
2022-10-22T03:32:59.930Z,5.62
2022-10-22T03:35:28.321Z,5.56
2022-10-22T03:37:56.619Z,5.50
2022-10-22T03:40:24.845Z,5.45
2022-10-22T03:42:53.140Z,5.39
2022-10-22T03:45:21.364Z,5.34
2022-10-22T03:47:49.553Z,5.33
2022-10-22T03:50:17.964Z,5.32
2022-10-22T03:52:46.217Z,5.30
2022-10-22T03:55:14.360Z,5.27
2022-10-22T03:57:42.712Z,5.24
2022-10-22T04:00:11.395Z,5.19
2022-10-22T04:02:39.650Z,5.15
2022-10-22T04:05:08.260Z,5.11
2022-10-22T04:07:36.795Z,5.08
2022-10-22T04:10:05.454Z,5.04
2022-10-22T04:12:33.741Z,5.01
2022-10-22T04:15:02.055Z,5.00
2022-10-22T04:17:35.377Z,4.97
2022-10-22T04:20:04.480Z,4.93
2022-10-22T04:22:36.867Z,4.90
2022-10-22T04:25:05.699Z,4.89
2022-10-22T04:27:35.056Z,4.88
2022-10-22T04:30:05.148Z,4.89
2022-10-22T04:32:33.419Z,4.90
2022-10-22T04:35:01.722Z,4.90
2022-10-22T04:37:30.002Z,4.90
2022-10-22T04:39:58.498Z,4.90
2022-10-22T04:42:26.759Z,4.87
2022-10-22T04:44:54.975Z,4.85
2022-10-22T04:47:23.210Z,4.84
2022-10-22T04:49:51.379Z,4.81
2022-10-22T04:52:20.560Z,4.80
2022-10-22T04:54:48.792Z,4.80
2022-10-22T04:57:17.064Z,4.78
2022-10-22T04:59:45.261Z,4.75
2022-10-22T05:02:13.544Z,4.73
2022-10-22T05:04:44.515Z,4.72
2022-10-22T05:07:12.723Z,4.72
2022-10-22T05:09:41.322Z,4.73
2022-10-22T05:12:09.692Z,4.75
2022-10-22T05:14:41.290Z,4.76
2022-10-22T05:17:10.877Z,4.80
2022-10-22T05:19:39.129Z,4.78
2022-10-22T05:22:07.319Z,4.80
2022-10-22T05:24:37.247Z,4.83
2022-10-22T05:27:05.515Z,4.83
2022-10-22T05:29:34.018Z,4.84
2022-10-22T05:32:02.306Z,4.86
2022-10-22T05:34:30.944Z,4.89
2022-10-22T05:36:59.256Z,4.90
2022-10-22T05:39:30.658Z,4.89
2022-10-22T05:41:58.887Z,4.89
2022-10-22T05:44:27.055Z,4.90
2022-10-22T05:46:55.266Z,4.92
2022-10-22T05:49:23.549Z,4.92
2022-10-22T05:51:51.808Z,4.91
2022-10-22T05:54:23.647Z,4.90
2022-10-22T05:56:51.985Z,4.92
2022-10-22T05:59:20.187Z,4.93
2022-10-22T06:01:48.543Z,4.91
2022-10-22T06:04:18.063Z,4.90
2022-10-22T06:06:49.092Z,4.91
2022-10-22T06:09:19.958Z,4.96
2022-10-22T06:11:48.515Z,5.02
2022-10-22T06:14:18.004Z,5.09
2022-10-22T06:16:46.569Z,5.17
2022-10-22T06:19:16.844Z,5.24
2022-10-22T06:21:45.557Z,5.28
2022-10-22T06:24:14.628Z,5.32
2022-10-22T06:26:43.049Z,5.35
2022-10-22T06:29:16.687Z,5.38
2022-10-22T06:31:45.044Z,5.41
2022-10-22T06:35:07.421Z,5.42
2022-10-22T06:37:35.669Z,5.42
2022-10-22T06:40:04.248Z,5.42
2022-10-22T06:42:32.467Z,5.44
2022-10-22T06:47:33.897Z,5.54
2022-10-22T06:50:02.202Z,5.65
2022-10-22T06:52:30.572Z,5.79
2022-10-22T06:54:59.791Z,5.92
2022-10-22T06:57:28.118Z,6.07
2022-10-22T06:59:56.352Z,6.23
2022-10-22T07:02:24.630Z,6.40
2022-10-22T07:04:52.971Z,6.57
2022-10-22T07:07:21.258Z,6.78
2022-10-22T07:09:51.355Z,7.00
2022-10-22T07:12:19.853Z,7.25
2022-10-22T07:14:50.053Z,7.50
2022-10-22T07:17:18.232Z,7.76
2022-10-22T07:19:49.684Z,8.04
2022-10-22T07:26:53.761Z,8.81
2022-10-22T07:29:21.955Z,9.14
2022-10-22T07:31:50.267Z,9.40
2022-10-22T07:34:21.529Z,9.65
2022-10-22T07:36:49.764Z,9.91
2022-10-22T07:39:18.059Z,10.13
2022-10-22T07:41:46.209Z,10.35
2022-10-22T07:44:15.486Z,10.56
2022-10-22T07:46:48.032Z,10.75
2022-10-22T07:49:17.231Z,10.93
2022-10-22T07:51:45.492Z,11.10
2022-10-22T07:54:13.727Z,11.27
2022-10-22T07:56:41.896Z,11.43
2022-10-22T07:59:10.239Z,11.60
2022-10-22T08:01:38.469Z,11.74
2022-10-22T08:04:08.443Z,11.86
2022-10-22T08:06:36.946Z,11.94
2022-10-22T08:09:05.479Z,12.00
2022-10-22T08:11:33.879Z,12.09
2022-10-22T08:14:02.258Z,12.17
2022-10-22T08:16:30.561Z,12.24
2022-10-22T08:18:59.399Z,12.33
2022-10-22T08:21:27.749Z,12.38
2022-10-22T08:24:22.570Z,12.41
2022-10-22T08:26:51.128Z,12.47
2022-10-22T08:29:46.372Z,12.53
2022-10-22T08:32:14.783Z,12.59
2022-10-22T08:34:43.020Z,12.64
2022-10-22T08:37:36.670Z,12.73
2022-10-22T08:40:05.925Z,12.80
2022-10-22T08:42:43.415Z,12.87
2022-10-22T08:45:56.570Z,12.98
2022-10-22T08:48:46.296Z,13.14
2022-10-22T08:51:28.503Z,13.30
2022-10-22T08:54:14.823Z,13.40
2022-10-22T08:56:48.011Z,13.48
2022-10-22T08:59:37.979Z,13.59
2022-10-22T09:02:30.483Z,13.72
2022-10-22T09:05:16.171Z,13.80
2022-10-22T09:07:50.122Z,13.84
2022-10-22T09:10:21.941Z,13.87
2022-10-22T09:12:50.881Z,13.93
2022-10-22T09:15:20.214Z,14.03
2022-10-22T09:18:06.583Z,14.11
2022-10-22T09:20:41.588Z,14.22
2022-10-22T09:23:49.176Z,14.29
2022-10-22T09:26:17.671Z,14.38
2022-10-22T09:28:50.941Z,14.46
2022-10-22T09:31:19.252Z,14.55
2022-10-22T09:33:49.173Z,14.62
2022-10-22T09:36:21.509Z,14.70
2022-10-22T09:38:52.736Z,14.75
2022-10-22T09:41:26.100Z,14.80
2022-10-22T09:43:54.462Z,14.89
2022-10-22T09:46:25.314Z,14.98
2022-10-22T09:49:10.163Z,15.04
2022-10-22T09:51:53.710Z,15.13
2022-10-22T09:54:33.127Z,15.22
2022-10-22T09:57:10.078Z,15.31
2022-10-22T09:59:41.323Z,15.39
2022-10-22T10:02:19.949Z,15.46
2022-10-22T10:04:57.994Z,15.56
2022-10-22T10:07:31.295Z,15.66
2022-10-22T10:09:59.545Z,15.76
2022-10-22T10:15:36.694Z,15.99
2022-10-22T10:18:23.289Z,16.09
2022-10-22T10:20:58.094Z,16.17
2022-10-22T10:23:35.979Z,16.23
2022-10-22T10:26:19.361Z,16.33
2022-10-22T10:28:50.648Z,16.41
2022-10-22T10:31:46.120Z,16.47
2022-10-22T10:34:23.195Z,16.50
2022-10-22T10:37:14.105Z,16.47
2022-10-22T10:40:07.432Z,16.40
2022-10-22T10:42:43.976Z,16.37
2022-10-22T10:45:18.207Z,16.35
2022-10-22T10:48:12.859Z,16.37
2022-10-22T10:51:37.127Z,16.43
2022-10-22T10:54:26.564Z,16.49
2022-10-22T10:57:03.339Z,16.53
2022-10-22T10:59:49.645Z,16.52
2022-10-22T11:02:26.879Z,16.49
2022-10-22T11:05:15.926Z,16.38
2022-10-22T11:07:55.774Z,16.29
2022-10-22T11:10:27.464Z,16.23
2022-10-22T11:13:03.553Z,16.18
2022-10-22T11:15:37.735Z,16.13
2022-10-22T11:18:24.248Z,16.09
2022-10-22T11:21:21.398Z,16.06
2022-10-22T11:24:04.011Z,15.98
2022-10-22T11:26:49.181Z,15.93
2022-10-22T11:29:23.155Z,15.89
2022-10-22T11:31:54.731Z,15.86
2022-10-22T11:34:34.719Z,15.80
2022-10-22T11:37:05.004Z,15.74
2022-10-22T11:39:42.816Z,15.69
2022-10-22T11:42:18.487Z,15.64
2022-10-22T11:45:04.066Z,15.59
2022-10-22T11:47:35.889Z,15.53
2022-10-22T11:50:19.442Z,15.48
2022-10-22T11:53:06.039Z,15.42
2022-10-22T11:55:45.838Z,15.32
2022-10-22T11:58:29.618Z,15.20
2022-10-22T12:01:09.681Z,15.11
2022-10-22T12:03:44.005Z,15.06
2022-10-22T12:06:15.938Z,15.03
2022-10-22T12:08:53.408Z,15.02
2022-10-22T12:11:25.681Z,15.00
2022-10-22T12:14:00.341Z,14.98
2022-10-22T12:17:06.927Z,14.97
2022-10-22T12:19:46.645Z,14.95
2022-10-22T12:22:21.243Z,14.92
2022-10-22T12:24:51.940Z,14.90
2022-10-22T12:27:26.545Z,14.88
2022-10-22T12:29:59.858Z,14.86
2022-10-22T12:32:37.162Z,14.85
2022-10-22T12:35:11.822Z,14.84
2022-10-22T12:37:40.516Z,14.82
2022-10-22T12:40:21.217Z,14.80
2022-10-22T12:42:53.433Z,14.79
2022-10-22T12:45:22.561Z,14.76
2022-10-22T12:47:55.643Z,14.72
2022-10-22T12:50:38.330Z,14.69
2022-10-22T12:53:13.289Z,14.67
2022-10-22T12:55:42.152Z,14.66
2022-10-22T12:58:17.873Z,14.64
2022-10-22T13:00:47.889Z,14.60
2022-10-22T13:03:32.685Z,14.57
2022-10-22T13:06:13.119Z,14.52
2022-10-22T13:08:41.422Z,14.47
2022-10-22T13:11:11.886Z,14.42
2022-10-22T13:13:40.064Z,14.39
2022-10-22T13:16:21.664Z,14.34
2022-10-22T13:18:51.618Z,14.30
2022-10-22T13:21:38.117Z,14.26
2022-10-22T13:24:24.430Z,14.24
2022-10-22T13:26:54.990Z,14.21
2022-10-22T13:29:24.653Z,14.18
2022-10-22T13:31:54.177Z,14.16
2022-10-22T13:34:25.187Z,14.11
2022-10-22T13:36:53.695Z,14.08
2022-10-22T13:39:23.979Z,14.07
2022-10-22T13:41:52.391Z,14.06
2022-10-22T13:44:20.661Z,14.03
2022-10-22T13:46:49.131Z,14.01
2022-10-22T13:49:19.975Z,13.99
2022-10-22T13:51:48.308Z,13.98
2022-10-22T13:54:19.855Z,13.94
2022-10-22T13:56:48.162Z,13.92
2022-10-22T13:59:18.512Z,13.90
2022-10-22T14:01:49.703Z,13.87
2022-10-22T14:04:17.995Z,13.85
2022-10-22T14:06:46.263Z,13.84
2022-10-22T14:09:16.156Z,13.82
2022-10-22T14:11:44.542Z,13.81
2022-10-22T14:14:14.426Z,13.79
2022-10-22T14:16:42.835Z,13.73
2022-10-22T14:19:16.640Z,13.68
2022-10-22T14:21:44.980Z,13.64
2022-10-22T14:24:13.625Z,13.62
2022-10-22T14:26:42.111Z,13.58
2022-10-22T14:29:11.384Z,13.55
2022-10-22T14:31:43.315Z,13.51
2022-10-22T14:34:15.060Z,13.48
2022-10-22T14:36:46.178Z,13.43
2022-10-22T14:39:14.511Z,13.37
2022-10-22T14:41:43.064Z,13.32
2022-10-22T14:44:14.867Z,13.29
2022-10-22T14:46:44.415Z,13.26
2022-10-22T14:49:13.151Z,13.21
2022-10-22T14:51:41.987Z,13.17
2022-10-22T14:54:10.582Z,13.13
2022-10-22T14:56:38.827Z,13.10
2022-10-22T14:59:06.998Z,13.07
2022-10-22T15:01:35.406Z,13.04
2022-10-22T15:04:03.690Z,13.00
2022-10-22T15:06:31.901Z,12.97
2022-10-22T15:09:00.171Z,12.96
2022-10-22T15:11:28.521Z,12.93
2022-10-22T15:13:56.718Z,12.90
2022-10-22T15:16:24.995Z,12.86
2022-10-22T15:18:57.252Z,12.82
2022-10-22T15:21:25.713Z,12.81
2022-10-22T15:23:53.929Z,12.79
2022-10-22T15:26:22.310Z,12.76
2022-10-22T15:28:50.630Z,12.74
2022-10-22T15:32:05.095Z,12.71
2022-10-22T15:34:35.722Z,12.70
2022-10-22T15:37:06.392Z,12.67
2022-10-22T15:39:34.842Z,12.65
2022-10-22T15:42:03.025Z,12.64
2022-10-22T15:44:32.032Z,12.63
2022-10-22T15:47:03.358Z,12.64
2022-10-22T15:49:31.581Z,12.62
2022-10-22T15:51:59.882Z,12.61
2022-10-22T15:54:30.159Z,12.61
2022-10-22T15:57:02.361Z,12.61
2022-10-22T15:59:30.903Z,12.60
2022-10-22T16:01:59.051Z,12.59
2022-10-22T16:04:27.262Z,12.58
2022-10-22T16:06:57.948Z,12.56
2022-10-22T16:09:27.712Z,12.53
2022-10-22T16:11:56.511Z,12.50
2022-10-22T16:14:25.388Z,12.47
2022-10-22T16:16:55.591Z,12.45
2022-10-22T16:19:24.638Z,12.43
2022-10-22T16:21:55.125Z,12.41
2022-10-22T16:24:23.642Z,12.39
2022-10-22T16:26:53.321Z,12.34
2022-10-22T16:29:21.503Z,12.31
2022-10-22T16:31:49.758Z,12.29
2022-10-22T16:34:18.051Z,12.29
2022-10-22T16:36:46.464Z,12.27
2022-10-22T16:39:14.718Z,12.27
2022-10-22T16:41:42.964Z,12.27
2022-10-22T16:44:12.479Z,12.25
2022-10-22T16:46:40.925Z,12.24
2022-10-22T16:49:09.148Z,12.24
2022-10-22T16:51:37.315Z,12.23
2022-10-22T16:54:08.290Z,12.24
2022-10-22T16:56:40.078Z,12.23
2022-10-22T16:59:08.816Z,12.21
2022-10-22T17:01:40.909Z,12.21
2022-10-22T17:04:10.282Z,12.20
2022-10-22T17:06:38.711Z,12.19
2022-10-22T17:09:07.132Z,12.19
2022-10-22T17:11:37.057Z,12.19
2022-10-22T17:14:07.334Z,12.19
2022-10-22T17:16:35.675Z,12.17
2022-10-22T17:19:05.088Z,12.15
2022-10-22T17:21:34.184Z,12.12
2022-10-22T17:24:02.601Z,12.10
2022-10-22T17:26:33.302Z,12.09
2022-10-22T17:29:05.249Z,12.06
2022-10-22T17:31:37.552Z,12.04
2022-10-22T17:34:10.341Z,12.02
2022-10-22T17:36:38.782Z,12.00
2022-10-22T17:39:08.596Z,11.98
2022-10-22T17:41:44.205Z,11.96
2022-10-22T17:44:17.241Z,11.92
2022-10-22T17:46:49.664Z,11.86
2022-10-22T17:49:21.542Z,11.81
2022-10-22T17:51:50.198Z,11.77
2022-10-22T17:54:18.452Z,11.72
2022-10-22T17:56:46.675Z,11.71
2022-10-22T17:59:16.302Z,11.70
2022-10-22T18:01:45.961Z,11.71
2022-10-22T18:04:17.164Z,11.72
2022-10-22T18:06:51.755Z,11.72
2022-10-22T18:09:23.105Z,11.72
2022-10-22T18:11:53.903Z,11.72
2022-10-22T18:14:23.870Z,11.72
2022-10-22T18:16:55.791Z,11.72
2022-10-22T18:19:27.237Z,11.72
2022-10-22T18:22:20.420Z,11.72
2022-10-22T18:24:48.604Z,11.72
2022-10-22T18:27:16.901Z,11.71
2022-10-22T18:29:45.077Z,11.71
2022-10-22T18:32:13.410Z,11.72
2022-10-22T18:34:41.634Z,11.72
2022-10-22T18:37:09.961Z,11.73
2022-10-22T18:39:38.249Z,11.72
2022-10-22T18:42:07.256Z,11.71
2022-10-22T18:44:36.371Z,11.71
2022-10-22T18:47:04.806Z,11.71
2022-10-22T18:49:33.843Z,11.71
2022-10-22T18:52:05.126Z,11.71
2022-10-22T18:54:35.541Z,11.72
2022-10-22T18:57:03.974Z,11.73
2022-10-22T18:59:32.423Z,11.74
2022-10-22T19:02:00.781Z,11.75
2022-10-22T19:04:38.500Z,11.76
2022-10-22T19:07:12.915Z,11.78
2022-10-22T19:09:44.323Z,11.80
2022-10-22T19:12:15.408Z,11.82
2022-10-22T19:14:43.865Z,11.84
2022-10-22T19:17:12.357Z,11.85
2022-10-22T19:19:43.219Z,11.86
2022-10-22T19:22:11.506Z,11.87
2022-10-22T19:24:40.191Z,11.86
2022-10-22T19:27:08.689Z,11.85
2022-10-22T19:29:36.959Z,11.85
2022-10-22T19:32:05.624Z,11.85
2022-10-22T19:34:33.873Z,11.85
2022-10-22T19:37:02.299Z,11.85
2022-10-22T19:39:30.649Z,11.85
2022-10-22T19:41:59.867Z,11.83
2022-10-22T19:44:28.198Z,11.82
2022-10-22T19:46:56.454Z,11.82
2022-10-22T19:49:24.784Z,11.82
2022-10-22T19:51:59.063Z,11.83
2022-10-22T19:54:27.303Z,11.83
2022-10-22T19:56:55.765Z,11.83
2022-10-22T19:59:27.263Z,11.84
2022-10-22T20:02:26.200Z,11.84
2022-10-22T20:04:54.398Z,11.84
2022-10-22T20:07:22.874Z,11.85
2022-10-22T20:09:51.230Z,11.85
2022-10-22T20:12:19.498Z,11.86
2022-10-22T20:14:47.891Z,11.86
2022-10-22T20:17:19.844Z,11.85
2022-10-22T20:19:49.347Z,11.85
2022-10-22T20:22:18.940Z,11.85
2022-10-22T20:24:47.194Z,11.86
2022-10-22T20:27:15.475Z,11.85
2022-10-22T20:29:43.682Z,11.85
2022-10-22T20:32:12.489Z,11.85
2022-10-22T20:34:43.452Z,11.84
2022-10-22T20:37:11.911Z,11.84
2022-10-22T20:39:40.144Z,11.84
2022-10-22T20:42:08.510Z,11.83
2022-10-22T20:44:36.784Z,11.83
2022-10-22T20:47:05.116Z,11.82
2022-10-22T20:49:33.396Z,11.81
2022-10-22T20:52:02.139Z,11.80
2022-10-22T20:54:30.429Z,11.79
2022-10-22T20:56:59.270Z,11.78
2022-10-22T20:59:33.192Z,11.77
2022-10-22T21:02:02.302Z,11.77
2022-10-22T21:04:30.986Z,11.77
2022-10-22T21:06:59.185Z,11.76
2022-10-22T21:09:28.090Z,11.75
2022-10-22T21:11:58.206Z,11.75
2022-10-22T21:14:26.415Z,11.76
2022-10-22T21:16:54.653Z,11.75
2022-10-22T21:19:23.447Z,11.74
2022-10-22T21:21:52.218Z,11.74
2022-10-22T21:24:24.759Z,11.74
2022-10-22T21:26:54.257Z,11.74
2022-10-22T21:29:22.977Z,11.74
2022-10-22T21:31:52.616Z,11.74
2022-10-22T21:34:21.392Z,11.74
2022-10-22T21:36:49.965Z,11.75
2022-10-22T21:39:18.306Z,11.75
2022-10-22T21:41:46.517Z,11.75
2022-10-22T21:44:14.859Z,11.75
2022-10-22T21:46:43.157Z,11.74
2022-10-22T21:49:12.344Z,11.75
2022-10-22T21:51:43.393Z,11.74
2022-10-22T21:54:12.795Z,11.74
2022-10-22T21:56:41.670Z,11.74
2022-10-22T21:59:09.906Z,11.73
2022-10-22T22:01:38.206Z,11.73
2022-10-22T22:04:06.818Z,11.73
2022-10-22T22:06:35.331Z,11.73
2022-10-22T22:09:04.653Z,11.72
2022-10-22T22:11:33.550Z,11.72
2022-10-22T22:14:02.812Z,11.72
2022-10-22T22:16:33.319Z,11.72
2022-10-22T22:19:05.481Z,11.72
2022-10-22T22:21:35.691Z,11.72
2022-10-22T22:24:04.283Z,11.73
2022-10-22T22:26:32.578Z,11.73
2022-10-22T22:29:01.542Z,11.72
2022-10-22T22:31:32.156Z,11.72
2022-10-22T22:34:06.381Z,11.73
2022-10-22T22:36:37.621Z,11.73
2022-10-22T22:39:08.581Z,11.73
2022-10-22T22:41:36.874Z,11.73
2022-10-22T22:44:05.861Z,11.74
2022-10-22T22:46:34.410Z,11.75
2022-10-22T22:49:13.894Z,11.73
2022-10-22T22:51:43.554Z,11.72
2022-10-22T22:54:12.198Z,11.72
2022-10-22T22:56:41.056Z,11.72
2022-10-22T22:59:11.168Z,11.73
2022-10-22T23:01:39.577Z,11.73
2022-10-22T23:04:13.983Z,11.74
2022-10-22T23:06:43.022Z,11.74
2022-10-22T23:09:13.614Z,11.75
2022-10-22T23:11:43.340Z,11.75
2022-10-22T23:14:15.571Z,11.74
2022-10-22T23:16:46.818Z,11.74
2022-10-22T23:19:18.041Z,11.74
2022-10-22T23:21:49.151Z,11.74
2022-10-22T23:24:25.968Z,11.74
2022-10-22T23:26:55.874Z,11.73
2022-10-22T23:29:29.897Z,11.72
2022-10-22T23:32:02.660Z,11.70
2022-10-22T23:34:31.826Z,11.68
2022-10-22T23:37:03.626Z,11.67
2022-10-22T23:39:31.938Z,11.67
2022-10-22T23:42:00.156Z,11.65
2022-10-22T23:44:28.558Z,11.63
2022-10-22T23:46:56.749Z,11.62
2022-10-22T23:49:25.070Z,11.62
2022-10-22T23:51:53.282Z,11.62
2022-10-22T23:54:21.586Z,11.62
2022-10-22T23:56:49.810Z,11.63
2022-10-22T23:59:20.172Z,11.64
